Time;durP1;ratioP1;P1;durP2;ratioP2;P2;SDS_P1;SDS_P2;PMS_P1;PMS_P2;Temp;Humidity;BMP_temperature;BMP_pressure;BME280_temperature;BME280_humidity;BME280_pressure;Samples;Min_cycle;Max_cycle;Signal;HPM_P1;HPM_P2
2021/08/04 00:00:13;;;;;;;0.30;0.20;;;25.90;45.90;;;;;;5037314;28;20057;-41
2021/08/04 00:02:40;;;;;;;0.30;0.30;;;25.90;45.40;;;;;;5036366;28;20048;-41
2021/08/04 00:05:08;;;;;;;0.52;0.40;;;25.90;45.50;;;;;;5038081;28;20480;-41
2021/08/04 00:07:35;;;;;;;0.60;0.20;;;25.90;45.50;;;;;;5048214;28;20033;-41
2021/08/04 00:10:02;;;;;;;0.25;0.20;;;25.90;45.50;;;;;;5047418;28;20174;-41
2021/08/04 00:12:31;;;;;;;0.22;0.22;;;25.90;45.50;;;;;;5036152;28;20542;-41
2021/08/04 00:14:58;;;;;;;0.40;0.20;;;25.90;45.50;;;;;;5044884;28;20140;-43
2021/08/04 00:17:25;;;;;;;0.28;0.20;;;25.90;45.50;;;;;;5043783;28;20044;-42
2021/08/04 00:19:52;;;;;;;0.57;0.20;;;25.90;45.60;;;;;;5036035;28;20041;-45
2021/08/04 00:22:19;;;;;;;0.63;0.20;;;25.80;45.50;;;;;;5031505;28;20041;-41
2021/08/04 00:24:46;;;;;;;0.20;0.20;;;25.80;45.60;;;;;;5033430;28;20077;-43
2021/08/04 00:27:13;;;;;;;0.52;0.20;;;25.80;45.60;;;;;;5046690;28;20055;-41
2021/08/04 00:29:41;;;;;;;0.55;0.20;;;25.80;45.60;;;;;;5041340;28;20586;-43
2021/08/04 00:32:08;;;;;;;0.20;0.20;;;25.80;46.30;;;;;;5035888;28;20056;-41
2021/08/04 00:34:36;;;;;;;0.20;0.20;;;25.80;45.70;;;;;;5033139;28;20094;-41
2021/08/04 00:37:03;;;;;;;0.35;0.32;;;25.80;45.70;;;;;;5047088;28;20037;-44
2021/08/04 00:39:30;;;;;;;0.20;0.20;;;25.80;45.70;;;;;;5034358;28;20366;-42
2021/08/04 00:41:58;;;;;;;0.20;0.10;;;25.80;45.70;;;;;;5036028;28;20490;-41
2021/08/04 00:44:25;;;;;;;0.20;0.20;;;25.80;45.70;;;;;;5039566;28;20308;-42
2021/08/04 00:46:54;;;;;;;0.20;0.10;;;25.80;45.70;;;;;;5034212;28;20045;-41
2021/08/04 00:49:21;;;;;;;1.20;0.20;;;25.80;45.70;;;;;;5045600;28;20144;-42
2021/08/04 00:51:48;;;;;;;1.50;0.25;;;25.80;45.80;;;;;;5041632;28;20140;-43
2021/08/04 00:54:15;;;;;;;0.50;0.50;;;25.80;45.80;;;;;;5046951;28;20163;-45
2021/08/04 00:56:42;;;;;;;0.25;0.25;;;25.80;45.80;;;;;;5040445;28;20509;-44
2021/08/04 00:59:13;;;;;;;0.63;0.20;;;25.80;45.80;;;;;;5036331;28;20465;-44
2021/08/04 01:01:46;;;;;;;1.50;0.20;;;25.80;45.90;;;;;;5044155;28;20499;-41
2021/08/04 01:04:21;;;;;;;1.48;0.35;;;25.70;45.80;;;;;;5031191;28;20115;-41
2021/08/04 01:06:55;;;;;;;0.30;0.10;;;25.80;45.90;;;;;;5041928;28;20042;-45
2021/08/04 01:09:27;;;;;;;0.30;0.30;;;25.70;45.80;;;;;;5057712;28;20434;-43
2021/08/04 01:11:59;;;;;;;0.60;0.20;;;25.70;45.80;;;;;;5045164;28;20465;-41
2021/08/04 01:14:29;;;;;;;0.45;0.10;;;25.70;45.80;;;;;;5041714;28;20045;-46
2021/08/04 01:16:56;;;;;;;0.20;0.20;;;25.70;45.90;;;;;;5035291;28;20510;-43
2021/08/04 01:19:36;;;;;;;0.82;0.20;;;25.70;45.90;;;;;;5029521;28;20071;-44
2021/08/04 01:22:17;;;;;;;0.20;0.20;;;25.70;45.90;;;;;;5044234;28;20107;-45
2021/08/04 01:24:53;;;;;;;0.63;0.38;;;25.70;45.90;;;;;;5032536;28;20473;-42
2021/08/04 01:27:23;;;;;;;0.10;0.10;;;25.70;46.00;;;;;;5046981;28;20068;-42
2021/08/04 01:29:51;;;;;;;0.35;0.35;;;25.60;45.90;;;;;;5038994;28;20511;-42
2021/08/04 01:32:19;;;;;;;0.20;0.20;;;25.70;46.00;;;;;;5036389;28;20048;-46
2021/08/04 01:34:48;;;;;;;1.00;0.20;;;25.60;45.90;;;;;;5046463;28;20041;-46
2021/08/04 01:37:15;;;;;;;0.40;0.20;;;25.60;45.90;;;;;;5028573;28;20156;-42
2021/08/04 01:39:45;;;;;;;0.20;0.20;;;25.60;45.90;;;;;;5033287;28;20118;-41
2021/08/04 01:42:13;;;;;;;1.35;0.20;;;25.60;45.90;;;;;;5045024;28;20082;-43
2021/08/04 01:44:41;;;;;;;0.68;0.38;;;25.60;45.90;;;;;;5044248;28;20532;-41
2021/08/04 01:47:10;;;;;;;2.72;0.35;;;25.60;45.90;;;;;;5042758;28;20087;-40
2021/08/04 01:49:37;;;;;;;0.40;0.22;;;25.60;45.90;;;;;;5032341;28;20463;-41
2021/08/04 01:52:06;;;;;;;0.70;0.20;;;25.60;45.90;;;;;;5038926;28;20396;-40
2021/08/04 01:54:33;;;;;;;1.05;0.55;;;25.60;46.00;;;;;;5047071;28;20044;-41
2021/08/04 01:57:01;;;;;;;0.32;0.10;;;25.60;46.00;;;;;;5044365;28;20438;-41
2021/08/04 01:59:28;;;;;;;0.13;0.10;;;25.60;46.00;;;;;;5044599;28;20051;-40
2021/08/04 02:02:14;;;;;;;1.30;0.20;;;25.60;46.00;;;;;;5040918;28;20537;-41
2021/08/04 02:04:42;;;;;;;0.65;0.50;;;25.60;45.90;;;;;;5032954;28;20485;-40
2021/08/04 02:07:16;;;;;;;0.13;0.10;;;25.60;46.00;;;;;;5044553;28;20073;-43
2021/08/04 02:09:49;;;;;;;0.20;0.17;;;25.60;46.00;;;;;;5047383;28;20053;-41
2021/08/04 02:12:16;;;;;;;0.38;0.30;;;25.60;46.00;;;;;;5045595;28;20068;-41
2021/08/04 02:14:52;;;;;;;0.50;0.22;;;25.60;46.10;;;;;;5044531;28;20037;-40
2021/08/04 02:17:25;;;;;;;0.20;0.10;;;25.60;46.10;;;;;;5043874;28;20068;-41
2021/08/04 02:19:58;;;;;;;0.20;0.20;;;25.50;46.60;;;;;;5044559;28;20061;-45
2021/08/04 02:22:31;;;;;;;0.68;0.50;;;25.60;46.10;;;;;;5032511;28;20048;-41
2021/08/04 02:25:05;;;;;;;0.30;0.30;;;25.60;46.10;;;;;;5043792;28;20590;-41
2021/08/04 02:27:36;;;;;;;0.20;0.20;;;25.50;46.00;;;;;;5036102;28;20046;-41
2021/08/04 02:30:04;;;;;;;0.20;0.20;;;25.50;46.00;;;;;;5047577;28;20131;-42
2021/08/04 02:32:33;;;;;;;0.10;0.10;;;25.50;46.00;;;;;;5044652;28;20120;-43
2021/08/04 02:35:01;;;;;;;0.38;0.22;;;25.50;46.00;;;;;;5037959;28;20123;-46
2021/08/04 02:37:28;;;;;;;0.20;0.20;;;25.50;46.00;;;;;;5032200;28;20712;-40
2021/08/04 02:39:57;;;;;;;0.63;0.30;;;25.50;46.00;;;;;;5052488;28;20072;-41
2021/08/04 02:42:24;;;;;;;0.30;0.30;;;25.50;46.00;;;;;;5046620;28;20055;-44
2021/08/04 02:44:52;;;;;;;0.32;0.20;;;25.50;46.10;;;;;;5047837;28;20679;-44
2021/08/04 02:47:20;;;;;;;0.20;0.20;;;25.50;46.00;;;;;;5046033;28;20041;-46
2021/08/04 02:49:48;;;;;;;0.60;0.20;;;25.50;46.10;;;;;;5042259;28;20585;-41
2021/08/04 02:52:18;;;;;;;0.25;0.17;;;25.50;46.00;;;;;;5038017;28;20562;-45
2021/08/04 02:54:46;;;;;;;1.48;0.20;;;25.50;46.10;;;;;;5035894;28;20080;-46
2021/08/04 02:57:14;;;;;;;0.85;0.43;;;25.50;46.10;;;;;;5041647;28;20488;-43
2021/08/04 02:59:42;;;;;;;0.43;0.20;;;25.50;46.10;;;;;;5037808;28;20600;-43
2021/08/04 03:02:09;;;;;;;0.20;0.20;;;25.50;46.10;;;;;;5038182;28;20045;-42
2021/08/04 03:04:36;;;;;;;0.90;0.20;;;25.50;46.10;;;;;;5048946;28;20055;-41
2021/08/04 03:07:05;;;;;;;0.30;0.20;;;25.50;46.10;;;;;;5064933;28;20049;-44
2021/08/04 03:09:32;;;;;;;0.20;0.10;;;25.50;46.10;;;;;;5050154;28;20056;-44
2021/08/04 03:11:59;;;;;;;1.25;0.10;;;25.40;46.10;;;;;;5048605;28;20033;-42
2021/08/04 03:14:26;;;;;;;0.43;0.20;;;25.40;46.10;;;;;;5045883;28;20099;-41
2021/08/04 03:16:53;;;;;;;0.35;0.20;;;25.40;46.10;;;;;;5049025;28;20068;-42
2021/08/04 03:19:21;;;;;;;0.20;0.10;;;25.40;46.10;;;;;;5033021;28;20146;-43
2021/08/04 03:21:48;;;;;;;0.20;0.20;;;25.40;46.20;;;;;;5035074;28;20503;-41
2021/08/04 03:24:16;;;;;;;0.30;0.30;;;25.50;46.20;;;;;;5037939;28;20049;-44
2021/08/04 03:26:43;;;;;;;0.30;0.20;;;25.40;46.20;;;;;;5037615;28;20048;-41
2021/08/04 03:29:10;;;;;;;0.55;0.30;;;25.40;46.20;;;;;;5039237;28;20045;-41
2021/08/04 03:31:37;;;;;;;0.20;0.20;;;25.50;46.20;;;;;;5048410;28;20045;-41
2021/08/04 03:34:05;;;;;;;0.30;0.20;;;25.40;46.20;;;;;;5048778;28;20387;-40
2021/08/04 03:36:32;;;;;;;0.30;0.30;;;25.40;46.20;;;;;;5049412;28;20045;-42
2021/08/04 03:38:59;;;;;;;0.25;0.25;;;25.40;46.20;;;;;;5048725;28;20049;-43
2021/08/04 03:41:27;;;;;;;0.32;0.22;;;25.40;46.20;;;;;;5048747;28;20044;-43
2021/08/04 03:43:54;;;;;;;0.77;0.20;;;25.40;46.20;;;;;;5048081;28;20128;-45
2021/08/04 03:46:21;;;;;;;0.20;0.10;;;25.40;46.20;;;;;;5048098;28;20049;-41
2021/08/04 03:48:48;;;;;;;0.70;0.50;;;25.40;46.20;;;;;;5034300;28;20128;-42
2021/08/04 03:51:15;;;;;;;0.20;0.10;;;25.40;46.20;;;;;;5035754;28;20649;-41
2021/08/04 03:53:42;;;;;;;0.20;0.10;;;25.30;46.20;;;;;;5043318;28;20048;-41
2021/08/04 03:56:09;;;;;;;0.57;0.20;;;25.40;46.80;;;;;;5048082;28;20032;-46
2021/08/04 03:58:38;;;;;;;0.10;0.10;;;25.40;46.20;;;;;;5048614;28;20522;-44
2021/08/04 04:01:05;;;;;;;1.27;0.20;;;25.30;46.20;;;;;;5032111;28;20125;-40
2021/08/04 04:03:32;;;;;;;0.30;0.15;;;25.30;46.20;;;;;;5037463;28;20045;-42
2021/08/04 04:05:59;;;;;;;0.75;0.30;;;25.30;46.20;;;;;;5045062;28;20080;-41
2021/08/04 04:08:26;;;;;;;0.20;0.20;;;25.30;46.20;;;;;;5048207;28;20127;-41
2021/08/04 04:10:53;;;;;;;0.30;0.28;;;25.30;46.20;;;;;;5048220;28;20079;-40
2021/08/04 04:13:20;;;;;;;0.20;0.20;;;25.30;46.20;;;;;;5032083;28;20041;-43
2021/08/04 04:15:48;;;;;;;0.50;0.20;;;25.30;46.20;;;;;;5047441;28;20644;-42
2021/08/04 04:18:15;;;;;;;0.22;0.22;;;25.30;46.20;;;;;;5047629;28;20086;-41
2021/08/04 04:20:42;;;;;;;0.90;0.20;;;25.30;46.20;;;;;;5048092;28;20798;-41
2021/08/04 04:23:09;;;;;;;0.15;0.13;;;25.30;46.20;;;;;;5047816;28;20033;-43
2021/08/04 04:25:36;;;;;;;0.55;0.13;;;25.30;46.30;;;;;;5047930;28;20049;-42
2021/08/04 04:28:03;;;;;;;0.30;0.20;;;25.30;46.20;;;;;;5031824;28;20045;-41
2021/08/04 04:30:30;;;;;;;0.15;0.10;;;25.30;46.30;;;;;;5048338;28;20124;-43
2021/08/04 04:32:59;;;;;;;0.60;0.20;;;25.30;46.20;;;;;;5039133;28;20048;-42
2021/08/04 04:35:27;;;;;;;0.20;0.20;;;25.30;46.30;;;;;;5040456;28;20045;-42
2021/08/04 04:37:54;;;;;;;0.73;0.73;;;25.30;46.20;;;;;;5047726;28;20041;-41
2021/08/04 04:40:21;;;;;;;0.85;0.55;;;25.30;46.30;;;;;;5047522;28;20044;-41
2021/08/04 04:42:48;;;;;;;0.25;0.22;;;25.30;46.30;;;;;;5048010;28;20041;-42
2021/08/04 04:45:16;;;;;;;0.45;0.45;;;25.30;46.30;;;;;;5036363;28;20037;-41
2021/08/04 04:47:43;;;;;;;0.60;0.60;;;25.30;46.30;;;;;;5036194;28;20053;-44
2021/08/04 04:50:12;;;;;;;1.23;0.32;;;25.30;46.30;;;;;;5033451;28;20128;-43
2021/08/04 04:52:42;;;;;;;1.02;1.00;;;25.30;46.30;;;;;;5041313;28;20045;-42
2021/08/04 04:55:11;;;;;;;0.63;0.40;;;25.30;46.30;;;;;;5047481;28;20055;-41
2021/08/04 04:57:38;;;;;;;0.40;0.40;;;25.30;46.40;;;;;;5032735;28;20057;-42
2021/08/04 05:00:07;;;;;;;1.02;0.50;;;25.30;46.30;;;;;;5031437;28;20045;-42
2021/08/04 05:02:37;;;;;;;0.70;0.55;;;25.30;46.30;;;;;;5040766;28;20564;-40
2021/08/04 05:05:05;;;;;;;0.85;0.40;;;25.30;46.30;;;;;;5043574;28;20049;-40
2021/08/04 05:07:33;;;;;;;0.40;0.40;;;25.30;46.30;;;;;;5032012;28;20045;-40
2021/08/04 05:10:00;;;;;;;0.50;0.40;;;25.30;46.30;;;;;;5047067;28;20084;-41
2021/08/04 05:12:27;;;;;;;1.05;0.50;;;25.30;46.40;;;;;;5028076;28;20049;-41
2021/08/04 05:14:54;;;;;;;1.48;0.47;;;25.20;46.30;;;;;;5042825;28;20061;-42
2021/08/04 05:17:21;;;;;;;0.70;0.70;;;25.30;46.40;;;;;;5046466;28;20047;-40
2021/08/04 05:19:49;;;;;;;0.40;0.40;;;25.30;46.30;;;;;;5046545;28;20037;-40
2021/08/04 05:22:16;;;;;;;0.98;0.98;;;25.30;46.30;;;;;;5046154;28;20049;-42
2021/08/04 05:24:44;;;;;;;0.47;0.47;;;25.30;46.40;;;;;;5033288;28;20746;-41
2021/08/04 05:27:11;;;;;;;0.70;0.70;;;25.30;46.40;;;;;;5034883;28;20064;-40
2021/08/04 05:29:38;;;;;;;1.45;0.55;;;25.20;46.30;;;;;;5034227;28;20033;-40
2021/08/04 05:32:06;;;;;;;1.45;0.52;;;25.30;46.90;;;;;;5042766;28;20041;-42
2021/08/04 05:34:34;;;;;;;0.40;0.40;;;25.30;46.30;;;;;;5035323;28;20582;-40
2021/08/04 05:37:01;;;;;;;0.55;0.43;;;25.30;46.40;;;;;;5029418;28;20549;-40
2021/08/04 05:39:28;;;;;;;0.88;0.47;;;25.30;46.30;;;;;;5033948;28;20130;-41
2021/08/04 05:41:56;;;;;;;1.38;0.40;;;25.30;46.40;;;;;;5041814;28;20036;-43
2021/08/04 05:44:23;;;;;;;1.55;0.50;;;25.30;46.40;;;;;;5046388;28;20120;-43
2021/08/04 05:46:51;;;;;;;0.47;0.40;;;25.30;46.30;;;;;;5044755;28;20615;-43
2021/08/04 05:49:17;;;;;;;0.43;0.35;;;25.30;46.30;;;;;;5028523;28;20180;-42
2021/08/04 05:51:45;;;;;;;0.30;0.30;;;25.30;46.40;;;;;;5047453;28;20048;-44
2021/08/04 05:54:12;;;;;;;1.35;0.30;;;25.20;46.30;;;;;;5035709;28;20837;-39
2021/08/04 05:56:39;;;;;;;0.93;0.40;;;25.30;46.40;;;;;;5034824;28;20128;-39
2021/08/04 05:59:08;;;;;;;0.60;0.43;;;25.30;46.30;;;;;;5034687;28;20072;-39
2021/08/04 06:01:35;;;;;;;0.20;0.20;;;25.30;46.30;;;;;;5031352;28;20040;-42
2021/08/04 06:04:02;;;;;;;1.25;0.40;;;25.30;46.30;;;;;;5034838;28;20045;-41
2021/08/04 06:06:29;;;;;;;0.30;0.30;;;25.30;46.30;;;;;;5044964;28;20471;-41
2021/08/04 06:08:57;;;;;;;1.00;0.30;;;25.30;46.30;;;;;;5045949;28;20517;-41
2021/08/04 06:11:24;;;;;;;0.28;0.20;;;25.30;46.30;;;;;;5042083;28;20047;-40
2021/08/04 06:13:51;;;;;;;0.40;0.28;;;25.30;46.30;;;;;;5033941;28;20048;-41
2021/08/04 06:16:20;;;;;;;0.47;0.20;;;25.30;46.30;;;;;;5045846;28;20056;-40
2021/08/04 06:18:47;;;;;;;0.82;0.40;;;25.30;46.90;;;;;;5047250;28;20080;-39
2021/08/04 06:21:14;;;;;;;0.50;0.20;;;25.30;46.30;;;;;;5035411;28;20073;-41
2021/08/04 06:23:41;;;;;;;0.28;0.28;;;25.30;46.30;;;;;;5034679;28;20598;-42
2021/08/04 06:26:08;;;;;;;0.25;0.20;;;25.30;46.20;;;;;;5035871;28;20040;-41
2021/08/04 06:28:35;;;;;;;0.40;0.40;;;25.30;46.20;;;;;;5046140;28;20258;-42
2021/08/04 06:31:02;;;;;;;0.38;0.38;;;25.30;46.20;;;;;;5045663;28;20045;-43
2021/08/04 06:33:31;;;;;;;0.22;0.17;;;25.30;46.20;;;;;;5046872;28;20060;-42
2021/08/04 06:35:58;;;;;;;0.70;0.30;;;25.30;46.20;;;;;;5037499;28;20046;-44
2021/08/04 06:38:25;;;;;;;1.08;1.02;;;25.30;46.20;;;;;;5034097;28;20128;-41
2021/08/04 06:40:52;;;;;;;0.50;0.20;;;25.30;46.20;;;;;;5045538;28;20612;-39
2021/08/04 06:43:19;;;;;;;1.48;0.20;;;25.30;46.20;;;;;;5029777;28;20414;-39
2021/08/04 06:45:47;;;;;;;0.40;0.20;;;25.30;46.20;;;;;;5047160;28;20126;-40
2021/08/04 06:48:14;;;;;;;0.38;0.30;;;25.30;46.10;;;;;;5035324;28;20041;-40
2021/08/04 06:50:42;;;;;;;2.15;1.20;;;25.30;46.10;;;;;;5040118;28;20426;-41
2021/08/04 06:53:09;;;;;;;0.63;0.40;;;25.30;46.10;;;;;;5045995;28;20148;-40
2021/08/04 06:55:37;;;;;;;0.50;0.20;;;25.30;46.10;;;;;;5046026;28;20044;-45
2021/08/04 06:58:04;;;;;;;0.20;0.13;;;25.30;46.00;;;;;;5029918;28;20053;-42
2021/08/04 07:00:31;;;;;;;1.75;0.32;;;25.30;46.00;;;;;;5034195;28;20041;-40
2021/08/04 07:02:58;;;;;;;0.40;0.20;;;25.30;46.60;;;;;;5042604;28;20052;-40
2021/08/04 07:05:26;;;;;;;0.52;0.32;;;25.30;46.00;;;;;;5042112;28;20550;-43
2021/08/04 07:07:54;;;;;;;0.85;0.30;;;25.30;46.00;;;;;;5036750;28;20037;-43
2021/08/04 07:10:22;;;;;;;5.18;0.60;;;25.30;46.00;;;;;;5031983;28;20048;-40
2021/08/04 07:12:49;;;;;;;0.40;0.30;;;25.30;46.00;;;;;;5033299;28;20033;-40
2021/08/04 07:15:16;;;;;;;0.40;0.20;;;25.40;46.00;;;;;;5037575;28;20041;-40
2021/08/04 07:17:45;;;;;;;0.60;0.32;;;25.40;46.20;;;;;;5043676;28;20126;-40
2021/08/04 07:20:13;;;;;;;1.42;0.20;;;25.30;46.00;;;;;;5048787;28;20037;-41
2021/08/04 07:22:40;;;;;;;0.63;0.30;;;25.40;46.00;;;;;;5049017;28;20166;-41
2021/08/04 07:25:11;;;;;;;0.73;0.73;;;25.40;46.00;;;;;;5048767;28;20522;-42
2021/08/04 07:27:38;;;;;;;0.47;0.47;;;25.40;46.00;;;;;;5034483;28;20128;-42
2021/08/04 07:30:08;;;;;;;0.90;0.20;;;25.40;46.00;;;;;;5046625;28;20052;-43
2021/08/04 07:32:36;;;;;;;0.30;0.20;;;25.40;45.90;;;;;;5043462;28;20744;-43
2021/08/04 07:35:04;;;;;;;1.02;0.32;;;25.40;45.90;;;;;;5033164;28;20594;-42
2021/08/04 07:37:32;;;;;;;0.20;0.20;;;25.40;45.90;;;;;;5033402;28;20045;-42
2021/08/04 07:40:00;;;;;;;0.20;0.20;;;25.40;45.90;;;;;;5045583;28;20041;-42
2021/08/04 07:42:29;;;;;;;1.70;0.30;;;25.40;45.80;;;;;;5034482;28;20590;-40
2021/08/04 07:44:56;;;;;;;0.20;0.20;;;25.50;45.90;;;;;;5044959;28;20045;-43
2021/08/04 07:47:23;;;;;;;0.70;0.20;;;25.40;45.80;;;;;;5045235;28;20132;-43
2021/08/04 07:49:51;;;;;;;0.52;0.30;;;25.40;45.70;;;;;;5036108;28;20498;-40
2021/08/04 07:52:18;;;;;;;2.13;0.30;;;25.50;45.80;;;;;;5048164;28;20076;-40
2021/08/04 07:54:45;;;;;;;0.95;0.20;;;25.50;45.80;;;;;;5049349;28;20049;-40
2021/08/04 07:57:12;;;;;;;8.07;0.75;;;25.40;45.70;;;;;;5048085;28;20049;-43
2021/08/04 07:59:41;;;;;;;1.10;0.20;;;25.50;45.80;;;;;;5042429;28;20048;-43
2021/08/04 08:02:08;;;;;;;0.20;0.20;;;25.50;45.70;;;;;;5036763;28;20073;-43
2021/08/04 08:04:36;;;;;;;0.20;0.10;;;25.50;45.70;;;;;;5033500;28;20132;-40
2021/08/04 08:07:03;;;;;;;0.98;0.20;;;25.50;45.70;;;;;;5048407;28;20129;-43
2021/08/04 08:09:31;;;;;;;2.13;0.40;;;25.50;45.60;;;;;;5035937;28;20092;-40
2021/08/04 08:12:00;;;;;;;0.17;0.17;;;25.50;45.60;;;;;;5032125;28;20049;-40
2021/08/04 08:14:28;;;;;;;2.97;0.82;;;25.50;45.60;;;;;;5040771;28;20166;-42
2021/08/04 08:16:57;;;;;;;0.30;0.30;;;25.50;45.60;;;;;;5047767;28;20051;-41
2021/08/04 08:19:25;;;;;;;2.67;0.38;;;25.60;45.60;;;;;;5030956;28;20044;-44
2021/08/04 08:21:52;;;;;;;0.40;0.20;;;25.60;45.60;;;;;;5049061;28;20049;-43
2021/08/04 08:24:21;;;;;;;0.55;0.55;;;25.60;45.60;;;;;;5047794;28;20076;-43
2021/08/04 08:26:50;;;;;;;0.40;0.40;;;25.60;45.60;;;;;;5047519;28;20048;-40
2021/08/04 08:29:17;;;;;;;0.82;0.25;;;25.60;45.60;;;;;;5047520;28;20045;-42
2021/08/04 08:31:44;;;;;;;1.40;0.20;;;25.60;45.50;;;;;;5047708;28;20029;-46
2021/08/04 08:34:13;;;;;;;0.95;0.28;;;25.60;45.60;;;;;;5047708;28;20057;-44
2021/08/04 08:36:40;;;;;;;2.35;0.47;;;25.60;45.50;;;;;;5048667;28;20045;-41
2021/08/04 08:39:10;;;;;;;2.80;0.50;;;25.60;45.50;;;;;;5034045;28;20059;-43
2021/08/04 08:41:37;;;;;;;0.40;0.20;;;25.60;45.50;;;;;;5041728;28;20040;-43
2021/08/04 08:44:07;;;;;;;0.95;0.20;;;25.60;45.50;;;;;;5047737;28;20110;-43
2021/08/04 08:46:34;;;;;;;0.95;0.30;;;25.60;45.50;;;;;;5047711;28;20049;-42
2021/08/04 08:49:02;;;;;;;0.73;0.73;;;25.60;45.40;;;;;;5031835;28;20041;-45
2021/08/04 08:51:31;;;;;;;1.27;0.28;;;25.60;45.40;;;;;;5047141;28;20051;-42
2021/08/04 08:53:58;;;;;;;0.47;0.25;;;25.60;45.40;;;;;;5047183;28;20083;-42
2021/08/04 08:56:26;;;;;;;0.43;0.20;;;25.70;45.40;;;;;;5047273;28;20073;-44
2021/08/04 08:58:55;;;;;;;1.10;0.32;;;25.70;45.40;;;;;;5047042;28;20041;-43
2021/08/04 09:01:35;;;;;;;0.50;0.10;;;25.70;45.30;;;;;;5046958;28;20051;-41
2021/08/04 09:04:05;;;;;;;0.55;0.30;;;25.70;45.30;;;;;;5044225;28;20061;-44
2021/08/04 09:06:52;;;;;;;0.40;0.10;;;25.70;45.30;;;;;;5044690;28;20134;-43
2021/08/04 09:09:22;;;;;;;0.43;0.30;;;25.70;45.20;;;;;;5035560;28;20132;-41
2021/08/04 09:11:51;;;;;;;0.30;0.22;;;25.70;45.20;;;;;;5035436;28;20045;-41
2021/08/04 09:14:26;;;;;;;1.23;0.50;;;25.70;45.20;;;;;;5038223;28;20057;-40
2021/08/04 09:17:06;;;;;;;0.98;0.28;;;25.70;45.10;;;;;;5046870;28;20084;-40
2021/08/04 09:19:35;;;;;;;0.50;0.50;;;25.80;45.20;;;;;;5032294;28;20060;-41
2021/08/04 09:22:11;;;;;;;0.60;0.25;;;25.80;45.20;;;;;;5045680;28;20060;-45
2021/08/04 09:24:59;;;;;;;0.40;0.30;;;25.80;45.10;;;;;;5028121;28;20118;-41
2021/08/04 09:27:44;;;;;;;0.60;0.20;;;25.80;45.10;;;;;;5035167;28;20515;-41
2021/08/04 09:30:14;;;;;;;0.40;0.20;;;25.80;45.10;;;;;;5045072;28;20044;-46
2021/08/04 09:32:41;;;;;;;0.80;0.30;;;25.80;45.10;;;;;;5046451;28;20044;-44
2021/08/04 09:35:11;;;;;;;1.25;0.22;;;25.80;45.10;;;;;;5045832;28;20045;-41
2021/08/04 09:37:40;;;;;;;0.93;0.20;;;25.80;45.00;;;;;;5046339;28;20045;-41
2021/08/04 09:40:09;;;;;;;0.40;0.40;;;25.80;45.00;;;;;;5030555;28;20072;-43
2021/08/04 09:42:46;;;;;;;0.85;0.20;;;25.80;44.90;;;;;;5033938;28;20049;-43
2021/08/04 09:45:16;;;;;;;0.43;0.20;;;25.90;44.90;;;;;;5045395;28;20055;-41
2021/08/04 09:48:05;;;;;;;2.92;0.40;;;25.80;44.80;;;;;;5046367;28;20489;-41
2021/08/04 09:50:50;;;;;;;0.32;0.20;;;25.90;44.80;;;;;;5046460;28;20048;-41
2021/08/04 09:53:38;;;;;;;0.73;0.20;;;25.90;44.70;;;;;;5043687;28;20029;-42
2021/08/04 09:56:11;;;;;;;1.42;0.20;;;25.90;44.70;;;;;;5035087;28;20774;-44
2021/08/04 09:58:40;;;;;;;1.20;0.20;;;25.90;44.70;;;;;;5029714;28;20400;-43
2021/08/04 10:01:10;;;;;;;0.40;0.20;;;25.90;44.70;;;;;;5046254;28;20052;-43
2021/08/04 10:03:37;;;;;;;0.95;0.20;;;25.90;44.60;;;;;;5047186;28;20052;-41
2021/08/04 10:06:04;;;;;;;0.68;0.30;;;26.00;44.60;;;;;;5045803;28;20152;-40
2021/08/04 10:08:31;;;;;;;0.32;0.22;;;26.00;44.60;;;;;;5041569;28;20049;-40
2021/08/04 10:11:00;;;;;;;0.50;0.20;;;26.00;44.50;;;;;;5035093;28;20072;-39
2021/08/04 10:13:32;;;;;;;0.82;0.55;;;26.00;44.50;;;;;;5046530;28;20053;-40
2021/08/04 10:16:02;;;;;;;0.40;0.30;;;26.00;44.50;;;;;;5030464;28;20052;-41
2021/08/04 10:18:32;;;;;;;0.50;0.30;;;26.00;44.40;;;;;;5047355;28;20060;-40
2021/08/04 10:21:00;;;;;;;0.38;0.22;;;26.10;44.40;;;;;;5046405;28;20136;-41
2021/08/04 10:23:30;;;;;;;0.52;0.30;;;26.10;44.40;;;;;;5041980;28;20053;-39
2021/08/04 10:26:00;;;;;;;0.82;0.22;;;26.10;44.30;;;;;;5035469;28;20418;-40
2021/08/04 10:28:29;;;;;;;1.77;0.40;;;26.10;44.30;;;;;;5029260;28;20507;-40
2021/08/04 10:30:57;;;;;;;0.30;0.30;;;26.20;44.30;;;;;;5030958;28;20053;-40
2021/08/04 10:33:25;;;;;;;1.05;0.40;;;26.10;44.20;;;;;;5046952;28;20049;-40
2021/08/04 10:35:57;;;;;;;1.88;0.20;;;26.10;44.20;;;;;;5038913;28;20072;-40
2021/08/04 10:38:26;;;;;;;1.40;0.20;;;26.20;44.20;;;;;;5034480;28;20469;-40
2021/08/04 10:41:13;;;;;;;2.35;0.68;;;26.20;44.10;;;;;;5046732;28;20880;-41
2021/08/04 10:43:44;;;;;;;0.93;0.30;;;26.20;44.00;;;;;;5036869;28;20128;-42
2021/08/04 10:46:43;;;;;;;0.40;0.30;;;26.20;44.00;;;;;;5050029;28;20049;-40
2021/08/04 10:49:25;;;;;;;0.70;0.70;;;26.20;43.90;;;;;;5048129;28;20136;-40
2021/08/04 10:52:17;;;;;;;0.95;0.20;;;26.20;44.00;;;;;;5046843;28;20045;-40
2021/08/04 10:55:09;;;;;;;0.30;0.30;;;26.20;43.90;;;;;;5024465;28;20423;-41
2021/08/04 10:58:09;;;;;;;0.70;0.20;;;26.20;43.80;;;;;;5034919;28;20056;-39
2021/08/04 11:00:39;;;;;;;0.30;0.20;;;26.20;43.80;;;;;;5038137;28;20443;-42
2021/08/04 11:03:44;;;;;;;1.00;0.35;;;26.20;43.90;;;;;;5039687;28;20727;-40
2021/08/04 11:06:12;;;;;;;1.23;0.20;;;26.30;43.90;;;;;;5038161;28;20083;-40
2021/08/04 11:08:40;;;;;;;1.13;0.32;;;26.20;43.90;;;;;;5038160;28;20434;-41
2021/08/04 11:11:09;;;;;;;0.50;0.50;;;26.20;43.90;;;;;;5039335;28;20059;-40
2021/08/04 11:13:56;;;;;;;0.70;0.30;;;26.20;43.90;;;;;;5044702;28;20098;-38
2021/08/04 11:16:28;;;;;;;;;;;26.30;43.90;;;;;;5033998;28;20657;-39
2021/08/04 11:19:06;;;;;;;0.30;0.13;;;26.20;43.90;;;;;;5046228;28;19932;-40
2021/08/04 11:21:34;;;;;;;0.95;0.25;;;26.30;44.10;;;;;;5034874;28;20048;-41
2021/08/04 11:24:02;;;;;;;0.30;0.20;;;26.20;44.00;;;;;;5046766;28;20048;-41
2021/08/04 11:26:36;;;;;;;0.73;0.20;;;26.30;44.00;;;;;;5044938;28;20099;-41
2021/08/04 11:29:04;;;;;;;0.40;0.30;;;26.30;43.90;;;;;;5037913;28;20094;-43
2021/08/04 11:31:33;;;;;;;0.75;0.20;;;26.30;43.90;;;;;;5033249;28;20119;-40
2021/08/04 11:34:25;;;;;;;0.70;0.20;;;26.30;43.90;;;;;;5033038;28;20042;-40
2021/08/04 11:36:59;;;;;;;0.28;0.25;;;26.30;43.80;;;;;;5046103;28;20045;-41
2021/08/04 11:39:26;;;;;;;1.45;0.40;;;26.30;43.80;;;;;;5037245;28;20602;-44
2021/08/04 11:41:53;;;;;;;0.63;0.30;;;26.30;43.80;;;;;;5043557;28;20502;-41
2021/08/04 11:44:24;;;;;;;0.63;0.43;;;26.30;43.80;;;;;;5048617;28;20055;-40
2021/08/04 11:46:55;;;;;;;0.43;0.43;;;26.30;43.80;;;;;;5048463;28;20040;-40
2021/08/04 11:49:27;;;;;;;0.68;0.20;;;26.40;43.90;;;;;;5048863;28;20603;-41
2021/08/04 11:51:56;;;;;;;0.50;0.20;;;26.40;43.80;;;;;;5045699;28;20045;-40
2021/08/04 11:54:34;;;;;;;2.55;0.43;;;26.40;43.80;;;;;;5036938;28;20408;-45
2021/08/04 11:57:02;;;;;;;2.38;0.40;;;26.40;43.80;;;;;;5037270;28;20037;-45
2021/08/04 11:59:29;;;;;;;0.32;0.30;;;26.40;43.80;;;;;;5041551;28;20530;-41
2021/08/04 12:02:03;;;;;;;0.40;0.30;;;26.40;43.80;;;;;;5048680;28;20041;-43
2021/08/04 12:04:32;;;;;;;0.82;0.20;;;26.40;43.80;;;;;;5033377;28;20053;-40
2021/08/04 12:07:02;;;;;;;0.40;0.20;;;26.40;43.80;;;;;;5048864;28;20063;-41
2021/08/04 12:09:31;;;;;;;2.83;0.20;;;26.40;43.80;;;;;;5033892;28;20054;-40
2021/08/04 12:12:00;;;;;;;0.40;0.20;;;26.40;43.90;;;;;;5036821;28;20041;-40
2021/08/04 12:14:27;;;;;;;2.72;0.30;;;26.40;43.90;;;;;;5036120;28;20060;-43
2021/08/04 12:16:58;;;;;;;1.75;0.20;;;26.40;43.90;;;;;;5036372;28;20036;-42
2021/08/04 12:19:36;;;;;;;0.20;0.20;;;26.40;43.90;;;;;;5032100;28;20053;-41
2021/08/04 12:22:05;;;;;;;1.48;0.63;;;26.40;43.90;;;;;;5045252;28;20469;-45
2021/08/04 12:24:40;;;;;;;1.95;0.30;;;26.40;44.00;;;;;;5030033;28;20048;-41
2021/08/04 12:27:08;;;;;;;0.20;0.20;;;26.40;44.00;;;;;;5045982;28;20132;-41
2021/08/04 12:29:36;;;;;;;0.47;0.10;;;26.40;44.00;;;;;;5042711;28;20124;-42
2021/08/04 12:32:12;;;;;;;0.28;0.13;;;26.40;44.10;;;;;;5036550;28;20049;-46
2021/08/04 12:34:51;;;;;;;1.38;0.30;;;26.40;44.10;;;;;;5034025;28;20083;-40
2021/08/04 12:37:20;;;;;;;0.32;0.30;;;26.40;44.10;;;;;;5031804;28;20053;-40
2021/08/04 12:39:48;;;;;;;0.50;0.40;;;26.40;44.20;;;;;;5029577;28;20047;-41
2021/08/04 12:42:18;;;;;;;0.47;0.20;;;26.40;44.20;;;;;;5046879;28;20043;-43
2021/08/04 12:44:45;;;;;;;0.45;0.40;;;26.40;44.20;;;;;;5040932;28;20053;-42
2021/08/04 12:47:15;;;;;;;0.17;0.17;;;26.40;44.20;;;;;;5038131;28;20036;-41
2021/08/04 12:49:45;;;;;;;0.30;0.30;;;26.40;44.30;;;;;;5047279;28;20083;-43
2021/08/04 12:52:13;;;;;;;0.82;0.32;;;26.40;44.30;;;;;;5047051;28;20053;-44
2021/08/04 12:54:41;;;;;;;0.43;0.43;;;26.40;44.40;;;;;;5048167;28;20065;-44
2021/08/04 12:57:23;;;;;;;1.33;0.20;;;26.40;44.40;;;;;;5047294;28;20067;-42
2021/08/04 12:59:51;;;;;;;0.40;0.30;;;26.40;44.40;;;;;;5040121;28;20120;-41